sensor_id;sensor_type;location;lat;lon;timestamp;P1;durP1;ratioP1;P2;durP2;ratioP2
75169;SDS011;63749;49.186;9.222;2023-02-15T00:01:48;38.37;;;15.80;;
75169;SDS011;63749;49.186;9.222;2023-02-15T00:04:15;36.88;;;15.18;;
75169;SDS011;63749;49.186;9.222;2023-02-15T00:06:42;37.15;;;15.52;;
75169;SDS011;63749;49.186;9.222;2023-02-15T00:09:09;36.37;;;15.33;;
75169;SDS011;63749;49.186;9.222;2023-02-15T00:11:35;35.58;;;14.60;;
75169;SDS011;63749;49.186;9.222;2023-02-15T00:16:34;37.87;;;15.57;;
75169;SDS011;63749;49.186;9.222;2023-02-15T00:19:00;36.25;;;15.63;;
75169;SDS011;63749;49.186;9.222;2023-02-15T00:21:27;34.97;;;15.02;;
75169;SDS011;63749;49.186;9.222;2023-02-15T00:23:56;34.97;;;14.73;;
75169;SDS011;63749;49.186;9.222;2023-02-15T00:26:23;36.03;;;15.23;;
75169;SDS011;63749;49.186;9.222;2023-02-15T00:28:48;35.63;;;15.00;;
75169;SDS011;63749;49.186;9.222;2023-02-15T00:31:14;34.87;;;15.20;;
75169;SDS011;63749;49.186;9.222;2023-02-15T00:33:39;34.37;;;14.90;;
75169;SDS011;63749;49.186;9.222;2023-02-15T00:36:07;35.13;;;14.93;;
75169;SDS011;63749;49.186;9.222;2023-02-15T00:38:34;34.70;;;15.27;;
75169;SDS011;63749;49.186;9.222;2023-02-15T00:41:01;34.80;;;14.85;;
75169;SDS011;63749;49.186;9.222;2023-02-15T00:43:29;35.87;;;14.67;;
75169;SDS011;63749;49.186;9.222;2023-02-15T00:45:55;34.90;;;14.82;;
75169;SDS011;63749;49.186;9.222;2023-02-15T00:48:21;33.55;;;14.93;;
75169;SDS011;63749;49.186;9.222;2023-02-15T00:50:51;36.08;;;15.27;;
75169;SDS011;63749;49.186;9.222;2023-02-15T00:53:17;33.40;;;14.80;;
75169;SDS011;63749;49.186;9.222;2023-02-15T00:55:43;35.90;;;15.52;;
75169;SDS011;63749;49.186;9.222;2023-02-15T00:58:09;35.93;;;15.47;;
75169;SDS011;63749;49.186;9.222;2023-02-15T01:00:36;36.50;;;15.75;;
75169;SDS011;63749;49.186;9.222;2023-02-15T01:03:02;32.72;;;14.77;;
75169;SDS011;63749;49.186;9.222;2023-02-15T01:05:27;34.40;;;15.00;;
75169;SDS011;63749;49.186;9.222;2023-02-15T01:07:54;30.85;;;13.93;;
75169;SDS011;63749;49.186;9.222;2023-02-15T01:10:20;31.70;;;14.32;;
75169;SDS011;63749;49.186;9.222;2023-02-15T01:12:46;34.03;;;15.10;;
75169;SDS011;63749;49.186;9.222;2023-02-15T01:15:11;32.40;;;14.30;;
75169;SDS011;63749;49.186;9.222;2023-02-15T01:17:36;32.80;;;14.50;;
75169;SDS011;63749;49.186;9.222;2023-02-15T01:20:02;33.63;;;14.80;;
75169;SDS011;63749;49.186;9.222;2023-02-15T01:22:28;32.95;;;14.70;;
75169;SDS011;63749;49.186;9.222;2023-02-15T01:24:53;32.53;;;14.80;;
75169;SDS011;63749;49.186;9.222;2023-02-15T01:27:18;31.50;;;13.77;;
75169;SDS011;63749;49.186;9.222;2023-02-15T01:29:44;33.70;;;15.33;;
75169;SDS011;63749;49.186;9.222;2023-02-15T01:32:09;33.40;;;14.90;;
75169;SDS011;63749;49.186;9.222;2023-02-15T01:34:35;30.97;;;13.83;;
75169;SDS011;63749;49.186;9.222;2023-02-15T01:37:02;27.27;;;11.13;;
75169;SDS011;63749;49.186;9.222;2023-02-15T01:39:27;30.40;;;13.95;;
75169;SDS011;63749;49.186;9.222;2023-02-15T01:41:53;30.83;;;13.65;;
75169;SDS011;63749;49.186;9.222;2023-02-15T01:50:17;33.53;;;14.87;;
75169;SDS011;63749;49.186;9.222;2023-02-15T01:53:07;33.45;;;14.77;;
75169;SDS011;63749;49.186;9.222;2023-02-15T01:55:56;35.22;;;15.07;;
75169;SDS011;63749;49.186;9.222;2023-02-15T01:58:33;32.15;;;14.65;;
75169;SDS011;63749;49.186;9.222;2023-02-15T02:01:00;35.78;;;15.35;;
75169;SDS011;63749;49.186;9.222;2023-02-15T02:06:29;34.13;;;15.45;;
75169;SDS011;63749;49.186;9.222;2023-02-15T02:08:54;33.70;;;14.88;;
75169;SDS011;63749;49.186;9.222;2023-02-15T02:11:21;38.33;;;14.57;;
75169;SDS011;63749;49.186;9.222;2023-02-15T02:13:47;37.25;;;16.00;;
75169;SDS011;63749;49.186;9.222;2023-02-15T02:16:18;34.60;;;15.07;;
75169;SDS011;63749;49.186;9.222;2023-02-15T02:19:05;36.53;;;16.10;;
75169;SDS011;63749;49.186;9.222;2023-02-15T02:24:50;35.78;;;15.35;;
75169;SDS011;63749;49.186;9.222;2023-02-15T02:27:49;32.47;;;15.07;;
75169;SDS011;63749;49.186;9.222;2023-02-15T02:43:54;31.73;;;14.87;;
75169;SDS011;63749;49.186;9.222;2023-02-15T02:46:47;32.88;;;14.70;;
75169;SDS011;63749;49.186;9.222;2023-02-15T02:49:16;33.08;;;14.88;;
75169;SDS011;63749;49.186;9.222;2023-02-15T02:51:42;36.70;;;15.40;;
75169;SDS011;63749;49.186;9.222;2023-02-15T02:54:10;34.78;;;15.43;;
75169;SDS011;63749;49.186;9.222;2023-02-15T02:56:36;34.20;;;15.43;;
75169;SDS011;63749;49.186;9.222;2023-02-15T02:59:11;28.83;;;13.75;;
75169;SDS011;63749;49.186;9.222;2023-02-15T03:01:49;32.45;;;14.57;;
75169;SDS011;63749;49.186;9.222;2023-02-15T03:04:20;31.65;;;14.20;;
75169;SDS011;63749;49.186;9.222;2023-02-15T03:07:00;35.03;;;14.85;;
75169;SDS011;63749;49.186;9.222;2023-02-15T03:09:42;33.23;;;14.03;;
75169;SDS011;63749;49.186;9.222;2023-02-15T03:12:15;34.85;;;15.43;;
75169;SDS011;63749;49.186;9.222;2023-02-15T03:14:44;31.13;;;14.75;;
75169;SDS011;63749;49.186;9.222;2023-02-15T03:17:13;34.22;;;15.35;;
75169;SDS011;63749;49.186;9.222;2023-02-15T03:19:40;31.73;;;14.57;;
75169;SDS011;63749;49.186;9.222;2023-02-15T03:22:08;35.03;;;15.07;;
75169;SDS011;63749;49.186;9.222;2023-02-15T03:27:25;32.65;;;14.05;;
75169;SDS011;63749;49.186;9.222;2023-02-15T03:29:58;33.28;;;14.77;;
75169;SDS011;63749;49.186;9.222;2023-02-15T03:32:26;33.72;;;14.10;;
75169;SDS011;63749;49.186;9.222;2023-02-15T03:34:54;33.93;;;14.87;;
75169;SDS011;63749;49.186;9.222;2023-02-15T03:43:07;36.33;;;15.48;;
75169;SDS011;63749;49.186;9.222;2023-02-15T03:45:40;34.20;;;15.02;;
75169;SDS011;63749;49.186;9.222;2023-02-15T03:48:33;34.13;;;14.97;;
75169;SDS011;63749;49.186;9.222;2023-02-15T03:51:06;31.67;;;14.10;;
75169;SDS011;63749;49.186;9.222;2023-02-15T03:53:54;36.60;;;14.52;;
75169;SDS011;63749;49.186;9.222;2023-02-15T03:56:20;32.33;;;13.48;;
75169;SDS011;63749;49.186;9.222;2023-02-15T03:58:46;36.17;;;14.97;;
75169;SDS011;63749;49.186;9.222;2023-02-15T04:01:34;34.60;;;14.93;;
75169;SDS011;63749;49.186;9.222;2023-02-15T04:04:22;32.67;;;14.10;;
75169;SDS011;63749;49.186;9.222;2023-02-15T04:06:55;36.85;;;15.35;;
75169;SDS011;63749;49.186;9.222;2023-02-15T04:09:21;31.00;;;14.13;;
75169;SDS011;63749;49.186;9.222;2023-02-15T04:12:05;36.38;;;14.93;;
75169;SDS011;63749;49.186;9.222;2023-02-15T04:14:31;35.13;;;14.50;;
75169;SDS011;63749;49.186;9.222;2023-02-15T04:17:14;33.55;;;14.57;;
75169;SDS011;63749;49.186;9.222;2023-02-15T04:19:40;36.90;;;15.87;;
75169;SDS011;63749;49.186;9.222;2023-02-15T04:22:24;38.00;;;15.18;;
75169;SDS011;63749;49.186;9.222;2023-02-15T04:25:08;38.20;;;15.37;;
75169;SDS011;63749;49.186;9.222;2023-02-15T04:27:41;36.50;;;14.45;;
75169;SDS011;63749;49.186;9.222;2023-02-15T04:30:10;38.03;;;15.38;;
75169;SDS011;63749;49.186;9.222;2023-02-15T04:32:37;37.97;;;14.90;;
75169;SDS011;63749;49.186;9.222;2023-02-15T04:35:03;35.38;;;15.23;;
75169;SDS011;63749;49.186;9.222;2023-02-15T04:37:30;37.27;;;15.07;;
75169;SDS011;63749;49.186;9.222;2023-02-15T04:39:55;37.50;;;15.50;;
75169;SDS011;63749;49.186;9.222;2023-02-15T04:42:23;35.27;;;15.10;;
75169;SDS011;63749;49.186;9.222;2023-02-15T04:44:51;36.25;;;15.68;;
75169;SDS011;63749;49.186;9.222;2023-02-15T04:47:17;35.08;;;15.07;;
75169;SDS011;63749;49.186;9.222;2023-02-15T04:49:42;35.67;;;14.93;;
75169;SDS011;63749;49.186;9.222;2023-02-15T04:52:08;34.63;;;15.23;;
75169;SDS011;63749;49.186;9.222;2023-02-15T04:54:33;33.23;;;15.00;;
75169;SDS011;63749;49.186;9.222;2023-02-15T04:56:58;35.50;;;14.67;;
75169;SDS011;63749;49.186;9.222;2023-02-15T04:59:24;34.50;;;13.60;;
75169;SDS011;63749;49.186;9.222;2023-02-15T05:01:49;33.63;;;14.53;;
75169;SDS011;63749;49.186;9.222;2023-02-15T05:04:15;32.75;;;14.65;;
75169;SDS011;63749;49.186;9.222;2023-02-15T05:06:40;36.50;;;15.43;;
75169;SDS011;63749;49.186;9.222;2023-02-15T05:09:07;35.88;;;14.95;;
75169;SDS011;63749;49.186;9.222;2023-02-15T05:11:32;34.93;;;15.30;;
75169;SDS011;63749;49.186;9.222;2023-02-15T05:13:57;34.83;;;14.00;;
75169;SDS011;63749;49.186;9.222;2023-02-15T05:16:23;34.33;;;13.53;;
75169;SDS011;63749;49.186;9.222;2023-02-15T05:18:48;33.60;;;15.13;;
75169;SDS011;63749;49.186;9.222;2023-02-15T05:21:14;36.38;;;14.55;;
75169;SDS011;63749;49.186;9.222;2023-02-15T05:23:41;34.90;;;15.00;;
75169;SDS011;63749;49.186;9.222;2023-02-15T05:26:08;34.65;;;14.38;;
75169;SDS011;63749;49.186;9.222;2023-02-15T05:28:54;34.63;;;15.15;;
75169;SDS011;63749;49.186;9.222;2023-02-15T05:31:20;38.40;;;14.97;;
75169;SDS011;63749;49.186;9.222;2023-02-15T05:33:46;35.17;;;14.85;;
75169;SDS011;63749;49.186;9.222;2023-02-15T05:36:12;38.40;;;14.97;;
75169;SDS011;63749;49.186;9.222;2023-02-15T05:38:39;42.35;;;16.58;;
75169;SDS011;63749;49.186;9.222;2023-02-15T05:41:07;40.65;;;15.88;;
75169;SDS011;63749;49.186;9.222;2023-02-15T05:43:34;41.35;;;16.63;;
75169;SDS011;63749;49.186;9.222;2023-02-15T05:45:59;38.63;;;15.43;;
75169;SDS011;63749;49.186;9.222;2023-02-15T05:48:26;37.47;;;15.93;;
75169;SDS011;63749;49.186;9.222;2023-02-15T05:50:58;38.47;;;16.23;;
75169;SDS011;63749;49.186;9.222;2023-02-15T05:53:25;39.67;;;16.45;;
75169;SDS011;63749;49.186;9.222;2023-02-15T05:55:51;39.00;;;15.97;;
75169;SDS011;63749;49.186;9.222;2023-02-15T05:58:16;42.63;;;16.25;;
75169;SDS011;63749;49.186;9.222;2023-02-15T06:00:42;37.13;;;16.30;;
75169;SDS011;63749;49.186;9.222;2023-02-15T06:03:08;41.25;;;15.52;;
75169;SDS011;63749;49.186;9.222;2023-02-15T06:05:34;37.30;;;15.27;;
75169;SDS011;63749;49.186;9.222;2023-02-15T06:08:02;37.15;;;15.68;;
75169;SDS011;63749;49.186;9.222;2023-02-15T06:10:27;38.13;;;15.73;;
75169;SDS011;63749;49.186;9.222;2023-02-15T06:12:53;40.78;;;16.30;;
75169;SDS011;63749;49.186;9.222;2023-02-15T06:15:18;39.63;;;15.50;;
75169;SDS011;63749;49.186;9.222;2023-02-15T06:17:43;38.40;;;15.80;;
75169;SDS011;63749;49.186;9.222;2023-02-15T06:20:10;38.17;;;15.57;;
75169;SDS011;63749;49.186;9.222;2023-02-15T06:22:36;47.47;;;17.25;;
75169;SDS011;63749;49.186;9.222;2023-02-15T06:25:01;46.47;;;16.90;;
75169;SDS011;63749;49.186;9.222;2023-02-15T06:27:26;39.50;;;16.13;;
75169;SDS011;63749;49.186;9.222;2023-02-15T06:29:52;36.10;;;15.23;;
75169;SDS011;63749;49.186;9.222;2023-02-15T06:32:17;35.07;;;15.30;;
75169;SDS011;63749;49.186;9.222;2023-02-15T06:34:42;33.83;;;15.20;;
75169;SDS011;63749;49.186;9.222;2023-02-15T06:37:08;38.88;;;15.27;;
75169;SDS011;63749;49.186;9.222;2023-02-15T06:39:33;36.77;;;15.43;;
75169;SDS011;63749;49.186;9.222;2023-02-15T06:41:59;34.27;;;15.13;;
75169;SDS011;63749;49.186;9.222;2023-02-15T06:44:24;34.10;;;15.20;;
75169;SDS011;63749;49.186;9.222;2023-02-15T06:46:50;37.20;;;15.05;;
75169;SDS011;63749;49.186;9.222;2023-02-15T06:49:15;36.57;;;14.97;;
75169;SDS011;63749;49.186;9.222;2023-02-15T06:51:40;34.33;;;14.80;;
75169;SDS011;63749;49.186;9.222;2023-02-15T06:54:06;31.67;;;13.57;;
75169;SDS011;63749;49.186;9.222;2023-02-15T06:56:31;36.97;;;15.17;;
75169;SDS011;63749;49.186;9.222;2023-02-15T06:58:56;34.57;;;14.53;;
75169;SDS011;63749;49.186;9.222;2023-02-15T07:01:22;35.33;;;15.43;;
75169;SDS011;63749;49.186;9.222;2023-02-15T07:03:47;35.70;;;14.43;;
75169;SDS011;63749;49.186;9.222;2023-02-15T07:06:13;34.20;;;14.80;;
75169;SDS011;63749;49.186;9.222;2023-02-15T07:08:38;34.20;;;14.20;;
75169;SDS011;63749;49.186;9.222;2023-02-15T07:11:04;34.78;;;14.95;;
75169;SDS011;63749;49.186;9.222;2023-02-15T07:13:50;31.05;;;14.30;;
75169;SDS011;63749;49.186;9.222;2023-02-15T07:16:17;33.50;;;14.23;;
75169;SDS011;63749;49.186;9.222;2023-02-15T07:18:42;32.67;;;13.93;;
75169;SDS011;63749;49.186;9.222;2023-02-15T07:21:08;32.93;;;14.00;;
75169;SDS011;63749;49.186;9.222;2023-02-15T07:23:34;34.20;;;14.75;;
75169;SDS011;63749;49.186;9.222;2023-02-15T07:26:03;34.30;;;14.37;;
75169;SDS011;63749;49.186;9.222;2023-02-15T07:28:30;35.67;;;15.18;;
75169;SDS011;63749;49.186;9.222;2023-02-15T07:30:57;34.47;;;15.13;;
75169;SDS011;63749;49.186;9.222;2023-02-15T07:33:22;36.90;;;15.23;;
75169;SDS011;63749;49.186;9.222;2023-02-15T07:35:52;37.72;;;15.15;;
75169;SDS011;63749;49.186;9.222;2023-02-15T07:38:19;35.83;;;15.80;;
75169;SDS011;63749;49.186;9.222;2023-02-15T07:40:45;33.60;;;13.85;;
75169;SDS011;63749;49.186;9.222;2023-02-15T07:43:10;36.20;;;14.83;;
75169;SDS011;63749;49.186;9.222;2023-02-15T07:45:36;32.17;;;12.82;;
75169;SDS011;63749;49.186;9.222;2023-02-15T07:48:03;30.00;;;12.57;;
75169;SDS011;63749;49.186;9.222;2023-02-15T07:50:31;33.92;;;14.52;;
75169;SDS011;63749;49.186;9.222;2023-02-15T07:52:57;33.33;;;14.33;;
75169;SDS011;63749;49.186;9.222;2023-02-15T07:55:23;33.22;;;14.75;;
75169;SDS011;63749;49.186;9.222;2023-02-15T07:57:50;35.35;;;15.32;;
75169;SDS011;63749;49.186;9.222;2023-02-15T08:00:16;35.67;;;15.57;;
75169;SDS011;63749;49.186;9.222;2023-02-15T08:02:55;33.90;;;14.85;;
75169;SDS011;63749;49.186;9.222;2023-02-15T08:05:40;32.83;;;14.80;;
75169;SDS011;63749;49.186;9.222;2023-02-15T08:08:08;35.97;;;15.90;;
75169;SDS011;63749;49.186;9.222;2023-02-15T08:10:56;34.38;;;15.73;;
75169;SDS011;63749;49.186;9.222;2023-02-15T08:13:42;36.10;;;15.20;;
75169;SDS011;63749;49.186;9.222;2023-02-15T08:16:19;35.55;;;15.05;;
75169;SDS011;63749;49.186;9.222;2023-02-15T08:18:47;31.97;;;15.00;;
75169;SDS011;63749;49.186;9.222;2023-02-15T08:21:12;33.07;;;14.83;;
75169;SDS011;63749;49.186;9.222;2023-02-15T08:23:38;30.33;;;13.47;;
75169;SDS011;63749;49.186;9.222;2023-02-15T08:26:03;30.57;;;14.03;;
75169;SDS011;63749;49.186;9.222;2023-02-15T08:28:29;34.00;;;15.00;;
75169;SDS011;63749;49.186;9.222;2023-02-15T08:30:55;32.73;;;14.73;;
75169;SDS011;63749;49.186;9.222;2023-02-15T08:33:20;29.27;;;13.63;;
75169;SDS011;63749;49.186;9.222;2023-02-15T08:35:45;31.80;;;15.33;;
75169;SDS011;63749;49.186;9.222;2023-02-15T08:38:11;33.00;;;14.60;;
75169;SDS011;63749;49.186;9.222;2023-02-15T08:40:38;32.35;;;15.05;;
75169;SDS011;63749;49.186;9.222;2023-02-15T08:43:03;33.73;;;15.10;;
75169;SDS011;63749;49.186;9.222;2023-02-15T08:45:28;32.10;;;15.27;;
75169;SDS011;63749;49.186;9.222;2023-02-15T08:47:55;31.67;;;14.63;;
75169;SDS011;63749;49.186;9.222;2023-02-15T08:50:20;33.03;;;15.27;;
75169;SDS011;63749;49.186;9.222;2023-02-15T08:52:47;30.67;;;14.20;;
75169;SDS011;63749;49.186;9.222;2023-02-15T08:55:12;34.05;;;14.80;;
75169;SDS011;63749;49.186;9.222;2023-02-15T08:57:38;32.27;;;14.70;;
75169;SDS011;63749;49.186;9.222;2023-02-15T09:00:09;31.48;;;14.65;;
75169;SDS011;63749;49.186;9.222;2023-02-15T09:02:37;29.17;;;13.88;;
75169;SDS011;63749;49.186;9.222;2023-02-15T09:05:02;31.23;;;14.90;;
75169;SDS011;63749;49.186;9.222;2023-02-15T09:07:28;30.98;;;14.85;;
75169;SDS011;63749;49.186;9.222;2023-02-15T09:09:54;28.58;;;14.18;;
75169;SDS011;63749;49.186;9.222;2023-02-15T09:12:21;27.40;;;13.53;;
75169;SDS011;63749;49.186;9.222;2023-02-15T09:14:46;29.80;;;14.67;;
75169;SDS011;63749;49.186;9.222;2023-02-15T09:17:11;27.33;;;13.73;;
75169;SDS011;63749;49.186;9.222;2023-02-15T09:19:37;26.97;;;13.33;;
75169;SDS011;63749;49.186;9.222;2023-02-15T09:22:02;33.13;;;14.30;;
75169;SDS011;63749;49.186;9.222;2023-02-15T09:24:27;30.93;;;13.90;;
75169;SDS011;63749;49.186;9.222;2023-02-15T09:26:57;28.10;;;14.48;;
75169;SDS011;63749;49.186;9.222;2023-02-15T09:29:23;28.73;;;14.20;;
75169;SDS011;63749;49.186;9.222;2023-02-15T09:31:48;29.53;;;14.47;;
75169;SDS011;63749;49.186;9.222;2023-02-15T09:34:16;28.65;;;14.13;;
75169;SDS011;63749;49.186;9.222;2023-02-15T09:36:43;28.52;;;14.48;;
75169;SDS011;63749;49.186;9.222;2023-02-15T09:39:16;28.30;;;13.88;;
75169;SDS011;63749;49.186;9.222;2023-02-15T09:41:51;28.75;;;14.80;;
75169;SDS011;63749;49.186;9.222;2023-02-15T09:53:10;28.40;;;14.18;;
75169;SDS011;63749;49.186;9.222;2023-02-15T09:56:09;26.48;;;14.10;;
75169;SDS011;63749;49.186;9.222;2023-02-15T09:58:46;27.53;;;13.90;;
75169;SDS011;63749;49.186;9.222;2023-02-15T10:04:00;26.15;;;13.25;;
75169;SDS011;63749;49.186;9.222;2023-02-15T10:06:37;28.45;;;14.05;;
75169;SDS011;63749;49.186;9.222;2023-02-15T10:09:15;26.95;;;14.15;;
75169;SDS011;63749;49.186;9.222;2023-02-15T10:12:14;27.83;;;13.73;;
75169;SDS011;63749;49.186;9.222;2023-02-15T10:14:51;27.75;;;14.23;;
75169;SDS011;63749;49.186;9.222;2023-02-15T10:28:29;28.50;;;14.50;;
75169;SDS011;63749;49.186;9.222;2023-02-15T10:33:51;27.25;;;14.02;;
75169;SDS011;63749;49.186;9.222;2023-02-15T10:36:51;27.27;;;15.02;;
75169;SDS011;63749;49.186;9.222;2023-02-15T10:42:26;29.20;;;15.48;;
75169;SDS011;63749;49.186;9.222;2023-02-15T10:50:51;26.75;;;14.38;;
75169;SDS011;63749;49.186;9.222;2023-02-15T10:53:23;29.07;;;15.27;;
75169;SDS011;63749;49.186;9.222;2023-02-15T11:07:30;27.40;;;15.10;;
75169;SDS011;63749;49.186;9.222;2023-02-15T11:12:57;27.08;;;15.23;;
75169;SDS011;63749;49.186;9.222;2023-02-15T11:17:55;31.13;;;16.33;;
75169;SDS011;63749;49.186;9.222;2023-02-15T11:20:28;30.88;;;15.15;;
75169;SDS011;63749;49.186;9.222;2023-02-15T11:22:56;31.27;;;15.80;;
75169;SDS011;63749;49.186;9.222;2023-02-15T11:25:25;27.75;;;14.43;;
75169;SDS011;63749;49.186;9.222;2023-02-15T11:27:56;29.02;;;14.80;;
75169;SDS011;63749;49.186;9.222;2023-02-15T11:30:23;29.17;;;15.35;;
75169;SDS011;63749;49.186;9.222;2023-02-15T11:32:56;28.50;;;15.53;;
75169;SDS011;63749;49.186;9.222;2023-02-15T11:36:11;29.55;;;16.42;;
75169;SDS011;63749;49.186;9.222;2023-02-15T11:38:22;31.55;;;16.05;;
75169;SDS011;63749;49.186;9.222;2023-02-15T11:40:54;31.05;;;16.92;;
75169;SDS011;63749;49.186;9.222;2023-02-15T11:46:10;29.87;;;16.10;;
75169;SDS011;63749;49.186;9.222;2023-02-15T11:48:37;29.98;;;16.10;;
75169;SDS011;63749;49.186;9.222;2023-02-15T11:51:03;29.65;;;15.93;;
75169;SDS011;63749;49.186;9.222;2023-02-15T11:53:32;30.88;;;16.85;;
75169;SDS011;63749;49.186;9.222;2023-02-15T11:55:59;31.57;;;16.13;;
75169;SDS011;63749;49.186;9.222;2023-02-15T12:03:51;29.65;;;15.77;;
75169;SDS011;63749;49.186;9.222;2023-02-15T12:06:41;31.27;;;16.73;;
75169;SDS011;63749;49.186;9.222;2023-02-15T12:09:23;32.80;;;16.00;;
75169;SDS011;63749;49.186;9.222;2023-02-15T12:12:19;28.50;;;15.50;;
75169;SDS011;63749;49.186;9.222;2023-02-15T12:14:48;32.80;;;17.00;;
75169;SDS011;63749;49.186;9.222;2023-02-15T12:17:16;30.45;;;15.90;;
75169;SDS011;63749;49.186;9.222;2023-02-15T12:19:43;31.95;;;15.60;;
75169;SDS011;63749;49.186;9.222;2023-02-15T12:22:20;29.77;;;15.97;;
75169;SDS011;63749;49.186;9.222;2023-02-15T12:24:49;30.60;;;16.10;;
75169;SDS011;63749;49.186;9.222;2023-02-15T12:29:59;31.40;;;15.57;;
75169;SDS011;63749;49.186;9.222;2023-02-15T12:32:36;32.20;;;15.75;;
75169;SDS011;63749;49.186;9.222;2023-02-15T12:35:15;30.03;;;15.57;;
75169;SDS011;63749;49.186;9.222;2023-02-15T12:37:57;29.48;;;15.63;;
75169;SDS011;63749;49.186;9.222;2023-02-15T12:40:28;28.92;;;15.57;;
75169;SDS011;63749;49.186;9.222;2023-02-15T12:42:56;30.45;;;15.15;;
75169;SDS011;63749;49.186;9.222;2023-02-15T12:48:12;32.63;;;17.20;;
75169;SDS011;63749;49.186;9.222;2023-02-15T12:50:57;29.63;;;14.90;;
75169;SDS011;63749;49.186;9.222;2023-02-15T12:53:34;29.75;;;15.23;;
75169;SDS011;63749;49.186;9.222;2023-02-15T12:56:01;28.10;;;15.35;;
75169;SDS011;63749;49.186;9.222;2023-02-15T13:01:04;27.97;;;14.80;;
75169;SDS011;63749;49.186;9.222;2023-02-15T13:03:34;31.17;;;15.60;;
75169;SDS011;63749;49.186;9.222;2023-02-15T13:06:02;30.67;;;16.27;;
75169;SDS011;63749;49.186;9.222;2023-02-15T13:08:40;29.40;;;16.38;;
75169;SDS011;63749;49.186;9.222;2023-02-15T13:11:13;29.33;;;16.05;;
75169;SDS011;63749;49.186;9.222;2023-02-15T13:14:15;29.02;;;15.50;;
75169;SDS011;63749;49.186;9.222;2023-02-15T13:16:49;29.20;;;15.38;;
75169;SDS011;63749;49.186;9.222;2023-02-15T13:19:28;26.93;;;15.70;;
75169;SDS011;63749;49.186;9.222;2023-02-15T13:22:16;32.38;;;15.98;;
75169;SDS011;63749;49.186;9.222;2023-02-15T13:24:47;31.00;;;15.63;;
75169;SDS011;63749;49.186;9.222;2023-02-15T13:27:19;28.75;;;15.88;;
75169;SDS011;63749;49.186;9.222;2023-02-15T13:29:49;28.45;;;16.65;;
75169;SDS011;63749;49.186;9.222;2023-02-15T13:34:55;28.02;;;15.63;;
75169;SDS011;63749;49.186;9.222;2023-02-15T13:42:54;27.05;;;16.75;;
75169;SDS011;63749;49.186;9.222;2023-02-15T13:48:10;25.67;;;16.92;;
75169;SDS011;63749;49.186;9.222;2023-02-15T13:53:36;24.13;;;16.92;;
75169;SDS011;63749;49.186;9.222;2023-02-15T13:56:33;25.13;;;16.88;;
75169;SDS011;63749;49.186;9.222;2023-02-15T14:10:31;24.92;;;17.08;;
75169;SDS011;63749;49.186;9.222;2023-02-15T14:13:28;25.77;;;18.37;;
75169;SDS011;63749;49.186;9.222;2023-02-15T14:16:13;21.48;;;17.25;;
75169;SDS011;63749;49.186;9.222;2023-02-15T14:18:51;22.75;;;18.52;;
75169;SDS011;63749;49.186;9.222;2023-02-15T14:21:27;25.15;;;17.63;;
75169;SDS011;63749;49.186;9.222;2023-02-15T14:24:01;24.42;;;18.00;;
75169;SDS011;63749;49.186;9.222;2023-02-15T14:29:49;21.98;;;16.98;;
75169;SDS011;63749;49.186;9.222;2023-02-15T14:32:24;20.65;;;16.83;;
75169;SDS011;63749;49.186;9.222;2023-02-15T14:35:02;23.52;;;17.35;;
75169;SDS011;63749;49.186;9.222;2023-02-15T14:54:04;20.80;;;16.93;;
75169;SDS011;63749;49.186;9.222;2023-02-15T14:56:31;21.55;;;16.95;;
75169;SDS011;63749;49.186;9.222;2023-02-15T14:58:58;22.90;;;18.00;;
75169;SDS011;63749;49.186;9.222;2023-02-15T15:03:59;23.30;;;17.65;;
75169;SDS011;63749;49.186;9.222;2023-02-15T15:06:30;22.52;;;17.38;;
75169;SDS011;63749;49.186;9.222;2023-02-15T15:09:08;24.33;;;17.95;;
75169;SDS011;63749;49.186;9.222;2023-02-15T15:14:07;25.58;;;18.23;;
75169;SDS011;63749;49.186;9.222;2023-02-15T15:19:09;23.63;;;17.08;;
75169;SDS011;63749;49.186;9.222;2023-02-15T15:21:54;25.73;;;17.88;;
75169;SDS011;63749;49.186;9.222;2023-02-15T15:33:30;28.98;;;20.38;;
75169;SDS011;63749;49.186;9.222;2023-02-15T15:38:46;22.73;;;16.90;;
75169;SDS011;63749;49.186;9.222;2023-02-15T15:41:29;23.92;;;17.15;;
75169;SDS011;63749;49.186;9.222;2023-02-15T15:49:39;27.48;;;16.90;;
75169;SDS011;63749;49.186;9.222;2023-02-15T15:52:14;23.90;;;16.37;;
75169;SDS011;63749;49.186;9.222;2023-02-15T15:54:42;26.60;;;17.25;;
75169;SDS011;63749;49.186;9.222;2023-02-15T16:02:52;27.70;;;15.87;;
75169;SDS011;63749;49.186;9.222;2023-02-15T16:05:19;29.45;;;16.23;;
75169;SDS011;63749;49.186;9.222;2023-02-15T16:07:45;29.23;;;16.60;;
75169;SDS011;63749;49.186;9.222;2023-02-15T16:10:21;26.30;;;16.02;;
75169;SDS011;63749;49.186;9.222;2023-02-15T16:12:48;32.97;;;16.13;;
75169;SDS011;63749;49.186;9.222;2023-02-15T16:15:16;27.33;;;16.03;;
75169;SDS011;63749;49.186;9.222;2023-02-15T16:17:44;28.05;;;16.48;;
75169;SDS011;63749;49.186;9.222;2023-02-15T16:20:16;28.40;;;16.00;;
75169;SDS011;63749;49.186;9.222;2023-02-15T16:22:46;31.17;;;16.10;;
75169;SDS011;63749;49.186;9.222;2023-02-15T16:25:23;29.20;;;15.68;;
75169;SDS011;63749;49.186;9.222;2023-02-15T16:27:56;29.40;;;15.80;;
75169;SDS011;63749;49.186;9.222;2023-02-15T16:30:29;30.45;;;16.48;;
75169;SDS011;63749;49.186;9.222;2023-02-15T16:33:09;30.60;;;16.27;;
75169;SDS011;63749;49.186;9.222;2023-02-15T16:35:37;28.67;;;15.07;;
75169;SDS011;63749;49.186;9.222;2023-02-15T16:38:05;30.75;;;16.42;;
75169;SDS011;63749;49.186;9.222;2023-02-15T16:43:18;30.70;;;16.45;;
75169;SDS011;63749;49.186;9.222;2023-02-15T16:45:58;32.30;;;16.88;;
75169;SDS011;63749;49.186;9.222;2023-02-15T16:48:39;33.77;;;16.73;;
75169;SDS011;63749;49.186;9.222;2023-02-15T16:51:08;33.35;;;17.10;;
75169;SDS011;63749;49.186;9.222;2023-02-15T16:53:34;38.40;;;17.35;;
75169;SDS011;63749;49.186;9.222;2023-02-15T16:56:02;35.00;;;17.27;;
75169;SDS011;63749;49.186;9.222;2023-02-15T17:01:29;36.17;;;18.30;;
75169;SDS011;63749;49.186;9.222;2023-02-15T17:06:59;42.40;;;19.10;;
75169;SDS011;63749;49.186;9.222;2023-02-15T17:09:28;43.42;;;19.42;;
75169;SDS011;63749;49.186;9.222;2023-02-15T17:11:53;40.73;;;20.00;;
75169;SDS011;63749;49.186;9.222;2023-02-15T17:14:20;39.33;;;18.97;;
75169;SDS011;63749;49.186;9.222;2023-02-15T17:19:21;42.33;;;19.77;;
75169;SDS011;63749;49.186;9.222;2023-02-15T17:21:50;42.72;;;20.80;;
75169;SDS011;63749;49.186;9.222;2023-02-15T17:24:21;47.97;;;21.87;;
75169;SDS011;63749;49.186;9.222;2023-02-15T17:26:54;44.50;;;21.20;;
75169;SDS011;63749;49.186;9.222;2023-02-15T17:29:31;44.67;;;21.55;;
75169;SDS011;63749;49.186;9.222;2023-02-15T17:32:02;44.97;;;22.30;;
75169;SDS011;63749;49.186;9.222;2023-02-15T17:37:14;47.70;;;22.47;;
75169;SDS011;63749;49.186;9.222;2023-02-15T17:39:47;48.75;;;21.05;;
75169;SDS011;63749;49.186;9.222;2023-02-15T17:42:13;43.87;;;21.80;;
75169;SDS011;63749;49.186;9.222;2023-02-15T17:44:38;52.35;;;23.38;;
75169;SDS011;63749;49.186;9.222;2023-02-15T17:47:03;44.13;;;21.50;;
75169;SDS011;63749;49.186;9.222;2023-02-15T17:49:29;60.33;;;25.80;;
75169;SDS011;63749;49.186;9.222;2023-02-15T17:51:59;52.88;;;23.40;;
75169;SDS011;63749;49.186;9.222;2023-02-15T17:54:27;53.57;;;24.03;;